sensor_id;sensor_type;location;lat;lon;timestamp;P1;durP1;ratioP1;P2;durP2;ratioP2
80926;SDS011;70385;44.538;18.532;2023-07-20T00:01:14;30.58;;;17.38;;
80926;SDS011;70385;44.538;18.532;2023-07-20T00:03:40;26.23;;;16.77;;
80926;SDS011;70385;44.538;18.532;2023-07-20T00:06:06;22.25;;;15.57;;
80926;SDS011;70385;44.538;18.532;2023-07-20T00:08:34;21.60;;;14.90;;
80926;SDS011;70385;44.538;18.532;2023-07-20T00:11:00;28.80;;;15.68;;
80926;SDS011;70385;44.538;18.532;2023-07-20T00:13:25;22.50;;;14.10;;
80926;SDS011;70385;44.538;18.532;2023-07-20T00:15:52;20.88;;;13.73;;
80926;SDS011;70385;44.538;18.532;2023-07-20T00:18:17;21.90;;;13.52;;
80926;SDS011;70385;44.538;18.532;2023-07-20T00:20:47;23.40;;;13.80;;
80926;SDS011;70385;44.538;18.532;2023-07-20T00:23:13;23.88;;;15.85;;
80926;SDS011;70385;44.538;18.532;2023-07-20T00:25:38;20.27;;;15.23;;
80926;SDS011;70385;44.538;18.532;2023-07-20T00:28:04;25.48;;;14.60;;
80926;SDS011;70385;44.538;18.532;2023-07-20T00:30:29;21.10;;;14.60;;
80926;SDS011;70385;44.538;18.532;2023-07-20T00:32:55;23.60;;;15.65;;
80926;SDS011;70385;44.538;18.532;2023-07-20T00:35:22;24.13;;;15.10;;
80926;SDS011;70385;44.538;18.532;2023-07-20T00:37:47;19.60;;;13.98;;
80926;SDS011;70385;44.538;18.532;2023-07-20T00:40:13;20.83;;;14.70;;
80926;SDS011;70385;44.538;18.532;2023-07-20T00:42:38;25.88;;;15.82;;
80926;SDS011;70385;44.538;18.532;2023-07-20T00:45:06;24.75;;;15.55;;
80926;SDS011;70385;44.538;18.532;2023-07-20T00:47:35;24.33;;;14.93;;
80926;SDS011;70385;44.538;18.532;2023-07-20T00:50:02;23.08;;;16.33;;
80926;SDS011;70385;44.538;18.532;2023-07-20T00:52:31;29.35;;;16.60;;
80926;SDS011;70385;44.538;18.532;2023-07-20T00:54:56;25.90;;;16.75;;
80926;SDS011;70385;44.538;18.532;2023-07-20T00:57:23;26.45;;;18.15;;
80926;SDS011;70385;44.538;18.532;2023-07-20T00:59:51;23.33;;;17.35;;
80926;SDS011;70385;44.538;18.532;2023-07-20T01:02:17;21.02;;;17.20;;
80926;SDS011;70385;44.538;18.532;2023-07-20T01:04:42;25.65;;;18.15;;
80926;SDS011;70385;44.538;18.532;2023-07-20T01:07:30;26.73;;;17.23;;
80926;SDS011;70385;44.538;18.532;2023-07-20T01:13:06;23.83;;;16.30;;
80926;SDS011;70385;44.538;18.532;2023-07-20T01:15:37;26.35;;;16.58;;
80926;SDS011;70385;44.538;18.532;2023-07-20T01:18:03;30.73;;;16.48;;
80926;SDS011;70385;44.538;18.532;2023-07-20T01:20:30;24.95;;;15.73;;
80926;SDS011;70385;44.538;18.532;2023-07-20T01:23:09;18.70;;;14.95;;
80926;SDS011;70385;44.538;18.532;2023-07-20T01:26:10;22.20;;;14.80;;
80926;SDS011;70385;44.538;18.532;2023-07-20T01:31:38;23.48;;;15.30;;
80926;SDS011;70385;44.538;18.532;2023-07-20T01:34:07;24.30;;;16.48;;
80926;SDS011;70385;44.538;18.532;2023-07-20T01:36:36;22.77;;;16.67;;
80926;SDS011;70385;44.538;18.532;2023-07-20T01:39:04;26.50;;;16.85;;
80926;SDS011;70385;44.538;18.532;2023-07-20T01:41:31;19.92;;;17.33;;
80926;SDS011;70385;44.538;18.532;2023-07-20T01:43:58;21.25;;;16.02;;
80926;SDS011;70385;44.538;18.532;2023-07-20T01:46:27;23.95;;;17.88;;
80926;SDS011;70385;44.538;18.532;2023-07-20T01:48:59;27.25;;;17.42;;
80926;SDS011;70385;44.538;18.532;2023-07-20T01:51:25;23.17;;;18.08;;
80926;SDS011;70385;44.538;18.532;2023-07-20T01:53:51;31.77;;;21.40;;
80926;SDS011;70385;44.538;18.532;2023-07-20T01:56:16;41.95;;;24.50;;
80926;SDS011;70385;44.538;18.532;2023-07-20T01:58:42;53.63;;;29.63;;
80926;SDS011;70385;44.538;18.532;2023-07-20T02:01:08;39.83;;;21.00;;
80926;SDS011;70385;44.538;18.532;2023-07-20T02:03:33;32.88;;;19.05;;
80926;SDS011;70385;44.538;18.532;2023-07-20T02:05:59;35.90;;;20.95;;
80926;SDS011;70385;44.538;18.532;2023-07-20T02:08:25;34.92;;;19.65;;
80926;SDS011;70385;44.538;18.532;2023-07-20T02:10:51;37.70;;;21.42;;
80926;SDS011;70385;44.538;18.532;2023-07-20T02:13:17;36.08;;;20.23;;
80926;SDS011;70385;44.538;18.532;2023-07-20T02:15:44;35.60;;;20.50;;
80926;SDS011;70385;44.538;18.532;2023-07-20T02:18:13;32.90;;;18.40;;
80926;SDS011;70385;44.538;18.532;2023-07-20T02:20:40;43.22;;;20.52;;
80926;SDS011;70385;44.538;18.532;2023-07-20T02:23:06;39.65;;;20.60;;
80926;SDS011;70385;44.538;18.532;2023-07-20T02:25:32;49.50;;;22.85;;
80926;SDS011;70385;44.538;18.532;2023-07-20T02:27:58;33.83;;;17.10;;
80926;SDS011;70385;44.538;18.532;2023-07-20T02:30:25;31.58;;;14.63;;
80926;SDS011;70385;44.538;18.532;2023-07-20T02:32:52;22.13;;;9.77;;
80926;SDS011;70385;44.538;18.532;2023-07-20T02:35:18;26.67;;;12.18;;
80926;SDS011;70385;44.538;18.532;2023-07-20T02:37:45;27.10;;;12.85;;
80926;SDS011;70385;44.538;18.532;2023-07-20T02:40:12;39.08;;;16.17;;
80926;SDS011;70385;44.538;18.532;2023-07-20T02:42:38;36.67;;;15.18;;
80926;SDS011;70385;44.538;18.532;2023-07-20T02:45:04;26.13;;;9.68;;
80926;SDS011;70385;44.538;18.532;2023-07-20T02:47:30;23.55;;;11.02;;
80926;SDS011;70385;44.538;18.532;2023-07-20T02:49:56;26.08;;;12.55;;
80926;SDS011;70385;44.538;18.532;2023-07-20T02:52:22;23.80;;;11.85;;
80926;SDS011;70385;44.538;18.532;2023-07-20T02:54:50;21.73;;;9.40;;
80926;SDS011;70385;44.538;18.532;2023-07-20T02:57:17;21.08;;;9.65;;
80926;SDS011;70385;44.538;18.532;2023-07-20T02:59:43;25.73;;;10.77;;
80926;SDS011;70385;44.538;18.532;2023-07-20T03:02:10;20.27;;;9.40;;
80926;SDS011;70385;44.538;18.532;2023-07-20T03:04:36;20.08;;;10.35;;
80926;SDS011;70385;44.538;18.532;2023-07-20T03:07:03;26.27;;;9.85;;
80926;SDS011;70385;44.538;18.532;2023-07-20T03:09:30;11.77;;;4.45;;
80926;SDS011;70385;44.538;18.532;2023-07-20T03:11:56;11.50;;;3.72;;
80926;SDS011;70385;44.538;18.532;2023-07-20T03:14:22;9.65;;;2.83;;
80926;SDS011;70385;44.538;18.532;2023-07-20T03:16:49;6.57;;;2.88;;
80926;SDS011;70385;44.538;18.532;2023-07-20T03:19:15;6.22;;;3.00;;
80926;SDS011;70385;44.538;18.532;2023-07-20T03:21:41;8.65;;;3.65;;
80926;SDS011;70385;44.538;18.532;2023-07-20T03:24:08;14.48;;;4.25;;
80926;SDS011;70385;44.538;18.532;2023-07-20T03:26:34;12.18;;;4.65;;
80926;SDS011;70385;44.538;18.532;2023-07-20T03:29:01;9.45;;;3.05;;
80926;SDS011;70385;44.538;18.532;2023-07-20T03:31:28;11.27;;;4.00;;
80926;SDS011;70385;44.538;18.532;2023-07-20T03:33:54;15.05;;;5.13;;
80926;SDS011;70385;44.538;18.532;2023-07-20T03:36:20;12.13;;;5.18;;
80926;SDS011;70385;44.538;18.532;2023-07-20T03:38:45;12.57;;;3.85;;
80926;SDS011;70385;44.538;18.532;2023-07-20T03:41:13;10.70;;;2.53;;
80926;SDS011;70385;44.538;18.532;2023-07-20T03:43:41;5.72;;;1.95;;
80926;SDS011;70385;44.538;18.532;2023-07-20T03:46:07;9.27;;;2.15;;
80926;SDS011;70385;44.538;18.532;2023-07-20T03:48:37;7.00;;;2.72;;
80926;SDS011;70385;44.538;18.532;2023-07-20T03:51:03;5.05;;;2.45;;
80926;SDS011;70385;44.538;18.532;2023-07-20T03:53:29;6.63;;;2.60;;
80926;SDS011;70385;44.538;18.532;2023-07-20T03:55:58;3.92;;;1.92;;
80926;SDS011;70385;44.538;18.532;2023-07-20T03:58:24;5.68;;;1.95;;
80926;SDS011;70385;44.538;18.532;2023-07-20T04:00:51;6.03;;;2.05;;
80926;SDS011;70385;44.538;18.532;2023-07-20T04:03:18;9.02;;;2.80;;
80926;SDS011;70385;44.538;18.532;2023-07-20T04:05:45;7.50;;;2.72;;
80926;SDS011;70385;44.538;18.532;2023-07-20T04:08:11;6.03;;;2.20;;
80926;SDS011;70385;44.538;18.532;2023-07-20T04:10:39;4.07;;;2.05;;
80926;SDS011;70385;44.538;18.532;2023-07-20T04:13:08;4.93;;;2.10;;
80926;SDS011;70385;44.538;18.532;2023-07-20T04:15:34;6.15;;;2.30;;
80926;SDS011;70385;44.538;18.532;2023-07-20T04:17:59;6.18;;;2.63;;
80926;SDS011;70385;44.538;18.532;2023-07-20T04:20:28;4.07;;;2.30;;
80926;SDS011;70385;44.538;18.532;2023-07-20T04:22:54;3.67;;;2.22;;
80926;SDS011;70385;44.538;18.532;2023-07-20T04:25:21;3.65;;;2.30;;
80926;SDS011;70385;44.538;18.532;2023-07-20T04:27:47;7.63;;;2.25;;
80926;SDS011;70385;44.538;18.532;2023-07-20T04:30:13;11.38;;;2.20;;
80926;SDS011;70385;44.538;18.532;2023-07-20T04:32:39;6.78;;;2.13;;
80926;SDS011;70385;44.538;18.532;2023-07-20T04:35:44;8.40;;;2.20;;
80926;SDS011;70385;44.538;18.532;2023-07-20T04:38:10;8.00;;;2.30;;
80926;SDS011;70385;44.538;18.532;2023-07-20T04:40:36;7.97;;;2.60;;
80926;SDS011;70385;44.538;18.532;2023-07-20T04:43:02;7.75;;;2.92;;
80926;SDS011;70385;44.538;18.532;2023-07-20T04:45:30;5.13;;;2.20;;
80926;SDS011;70385;44.538;18.532;2023-07-20T04:47:57;15.45;;;2.45;;
80926;SDS011;70385;44.538;18.532;2023-07-20T04:50:24;9.35;;;2.42;;
80926;SDS011;70385;44.538;18.532;2023-07-20T04:52:51;4.90;;;2.17;;
80926;SDS011;70385;44.538;18.532;2023-07-20T04:55:20;5.72;;;2.50;;
80926;SDS011;70385;44.538;18.532;2023-07-20T04:57:46;4.93;;;2.38;;
80926;SDS011;70385;44.538;18.532;2023-07-20T05:00:13;11.70;;;2.70;;
80926;SDS011;70385;44.538;18.532;2023-07-20T05:02:40;4.65;;;2.40;;
80926;SDS011;70385;44.538;18.532;2023-07-20T05:05:06;7.93;;;2.75;;
80926;SDS011;70385;44.538;18.532;2023-07-20T05:07:33;5.78;;;2.80;;
80926;SDS011;70385;44.538;18.532;2023-07-20T05:09:58;9.82;;;3.03;;
80926;SDS011;70385;44.538;18.532;2023-07-20T05:12:24;5.55;;;2.80;;
80926;SDS011;70385;44.538;18.532;2023-07-20T05:14:51;10.15;;;2.67;;
80926;SDS011;70385;44.538;18.532;2023-07-20T05:17:18;7.47;;;2.95;;
80926;SDS011;70385;44.538;18.532;2023-07-20T05:19:44;6.88;;;2.78;;
80926;SDS011;70385;44.538;18.532;2023-07-20T05:22:09;7.03;;;3.13;;
80926;SDS011;70385;44.538;18.532;2023-07-20T05:24:36;6.22;;;2.97;;
80926;SDS011;70385;44.538;18.532;2023-07-20T05:27:03;6.93;;;3.10;;
80926;SDS011;70385;44.538;18.532;2023-07-20T05:29:29;6.00;;;2.88;;
80926;SDS011;70385;44.538;18.532;2023-07-20T05:31:55;8.23;;;2.92;;
80926;SDS011;70385;44.538;18.532;2023-07-20T05:34:20;9.35;;;3.65;;
80926;SDS011;70385;44.538;18.532;2023-07-20T05:39:35;6.05;;;2.70;;
80926;SDS011;70385;44.538;18.532;2023-07-20T05:42:01;6.72;;;2.60;;
80926;SDS011;70385;44.538;18.532;2023-07-20T05:44:27;8.18;;;2.72;;
80926;SDS011;70385;44.538;18.532;2023-07-20T05:46:52;7.38;;;2.72;;
80926;SDS011;70385;44.538;18.532;2023-07-20T05:49:18;6.25;;;2.63;;
80926;SDS011;70385;44.538;18.532;2023-07-20T05:51:44;6.20;;;2.55;;
80926;SDS011;70385;44.538;18.532;2023-07-20T05:54:14;5.53;;;2.05;;
80926;SDS011;70385;44.538;18.532;2023-07-20T05:56:40;4.25;;;2.00;;
80926;SDS011;70385;44.538;18.532;2023-07-20T05:59:06;8.82;;;2.75;;
80926;SDS011;70385;44.538;18.532;2023-07-20T06:01:35;7.10;;;2.58;;
80926;SDS011;70385;44.538;18.532;2023-07-20T06:04:01;6.45;;;1.90;;
80926;SDS011;70385;44.538;18.532;2023-07-20T06:06:26;9.60;;;4.05;;
80926;SDS011;70385;44.538;18.532;2023-07-20T06:08:52;24.92;;;8.73;;
80926;SDS011;70385;44.538;18.532;2023-07-20T06:11:17;17.88;;;7.38;;
80926;SDS011;70385;44.538;18.532;2023-07-20T06:13:46;17.17;;;7.00;;
80926;SDS011;70385;44.538;18.532;2023-07-20T06:16:11;20.88;;;7.55;;
80926;SDS011;70385;44.538;18.532;2023-07-20T06:18:42;18.50;;;7.07;;
80926;SDS011;70385;44.538;18.532;2023-07-20T06:21:08;19.77;;;7.88;;
80926;SDS011;70385;44.538;18.532;2023-07-20T06:23:34;20.40;;;9.05;;
80926;SDS011;70385;44.538;18.532;2023-07-20T06:26:00;17.85;;;8.75;;
80926;SDS011;70385;44.538;18.532;2023-07-20T06:28:26;17.60;;;8.15;;
80926;SDS011;70385;44.538;18.532;2023-07-20T06:30:51;20.20;;;8.60;;
80926;SDS011;70385;44.538;18.532;2023-07-20T06:33:23;17.95;;;7.68;;
80926;SDS011;70385;44.538;18.532;2023-07-20T06:35:52;20.50;;;8.40;;
80926;SDS011;70385;44.538;18.532;2023-07-20T06:38:18;21.58;;;7.88;;
80926;SDS011;70385;44.538;18.532;2023-07-20T06:40:47;20.35;;;7.88;;
80926;SDS011;70385;44.538;18.532;2023-07-20T06:43:14;19.33;;;8.73;;
80926;SDS011;70385;44.538;18.532;2023-07-20T06:45:41;18.02;;;8.68;;
80926;SDS011;70385;44.538;18.532;2023-07-20T06:48:09;18.73;;;8.57;;
80926;SDS011;70385;44.538;18.532;2023-07-20T06:50:34;24.20;;;8.80;;
80926;SDS011;70385;44.538;18.532;2023-07-20T06:53:00;16.65;;;6.63;;
80926;SDS011;70385;44.538;18.532;2023-07-20T06:55:29;13.98;;;5.32;;
80926;SDS011;70385;44.538;18.532;2023-07-20T06:57:55;21.50;;;6.60;;
80926;SDS011;70385;44.538;18.532;2023-07-20T07:00:22;14.95;;;6.80;;
80926;SDS011;70385;44.538;18.532;2023-07-20T07:02:49;29.58;;;6.78;;
80926;SDS011;70385;44.538;18.532;2023-07-20T07:05:15;16.88;;;6.00;;
80926;SDS011;70385;44.538;18.532;2023-07-20T07:07:43;24.67;;;6.78;;
80926;SDS011;70385;44.538;18.532;2023-07-20T07:10:11;18.73;;;6.40;;
80926;SDS011;70385;44.538;18.532;2023-07-20T07:12:37;20.92;;;6.70;;
80926;SDS011;70385;44.538;18.532;2023-07-20T07:15:04;16.63;;;6.70;;
80926;SDS011;70385;44.538;18.532;2023-07-20T07:17:32;20.92;;;6.55;;
80926;SDS011;70385;44.538;18.532;2023-07-20T07:19:58;15.77;;;5.50;;
80926;SDS011;70385;44.538;18.532;2023-07-20T07:22:25;18.33;;;5.07;;
80926;SDS011;70385;44.538;18.532;2023-07-20T07:24:53;19.73;;;5.60;;
80926;SDS011;70385;44.538;18.532;2023-07-20T07:27:19;25.02;;;6.10;;
80926;SDS011;70385;44.538;18.532;2023-07-20T07:29:44;185.63;;;18.20;;
80926;SDS011;70385;44.538;18.532;2023-07-20T07:32:11;1293.03;;;126.20;;
80926;SDS011;70385;44.538;18.532;2023-07-20T07:34:37;740.58;;;75.13;;
80926;SDS011;70385;44.538;18.532;2023-07-20T07:37:04;22.92;;;5.65;;
80926;SDS011;70385;44.538;18.532;2023-07-20T07:39:32;14.00;;;4.95;;
80926;SDS011;70385;44.538;18.532;2023-07-20T07:42:00;14.23;;;4.95;;
80926;SDS011;70385;44.538;18.532;2023-07-20T07:44:27;14.20;;;5.00;;
80926;SDS011;70385;44.538;18.532;2023-07-20T07:46:54;10.70;;;4.28;;
80926;SDS011;70385;44.538;18.532;2023-07-20T07:49:26;15.55;;;4.65;;
80926;SDS011;70385;44.538;18.532;2023-07-20T07:51:55;12.27;;;4.28;;
80926;SDS011;70385;44.538;18.532;2023-07-20T07:54:25;7.60;;;3.83;;
80926;SDS011;70385;44.538;18.532;2023-07-20T07:56:50;11.63;;;4.10;;
80926;SDS011;70385;44.538;18.532;2023-07-20T07:59:33;8.15;;;3.90;;
80926;SDS011;70385;44.538;18.532;2023-07-20T08:02:04;11.85;;;4.63;;
80926;SDS011;70385;44.538;18.532;2023-07-20T08:04:33;17.58;;;4.38;;
80926;SDS011;70385;44.538;18.532;2023-07-20T08:07:03;15.07;;;4.50;;
80926;SDS011;70385;44.538;18.532;2023-07-20T08:09:31;14.02;;;5.20;;
80926;SDS011;70385;44.538;18.532;2023-07-20T08:11:58;20.42;;;6.45;;
80926;SDS011;70385;44.538;18.532;2023-07-20T08:14:23;15.73;;;4.97;;
80926;SDS011;70385;44.538;18.532;2023-07-20T08:16:52;14.07;;;5.70;;
80926;SDS011;70385;44.538;18.532;2023-07-20T08:19:20;13.63;;;4.90;;
80926;SDS011;70385;44.538;18.532;2023-07-20T08:21:51;16.58;;;4.70;;
80926;SDS011;70385;44.538;18.532;2023-07-20T08:24:16;13.32;;;4.50;;
80926;SDS011;70385;44.538;18.532;2023-07-20T08:26:42;12.13;;;4.68;;
80926;SDS011;70385;44.538;18.532;2023-07-20T08:29:09;14.50;;;4.20;;
80926;SDS011;70385;44.538;18.532;2023-07-20T08:31:36;16.13;;;4.18;;
80926;SDS011;70385;44.538;18.532;2023-07-20T08:34:02;16.83;;;4.32;;
80926;SDS011;70385;44.538;18.532;2023-07-20T08:36:28;12.15;;;3.50;;
80926;SDS011;70385;44.538;18.532;2023-07-20T08:38:54;14.23;;;3.70;;
80926;SDS011;70385;44.538;18.532;2023-07-20T08:41:20;11.35;;;3.92;;
80926;SDS011;70385;44.538;18.532;2023-07-20T08:43:47;13.05;;;4.15;;
80926;SDS011;70385;44.538;18.532;2023-07-20T08:46:18;13.52;;;4.30;;
80926;SDS011;70385;44.538;18.532;2023-07-20T08:48:47;12.25;;;4.20;;
80926;SDS011;70385;44.538;18.532;2023-07-20T08:51:14;15.40;;;4.18;;
80926;SDS011;70385;44.538;18.532;2023-07-20T08:53:41;13.07;;;4.18;;
80926;SDS011;70385;44.538;18.532;2023-07-20T08:56:10;18.52;;;6.07;;
80926;SDS011;70385;44.538;18.532;2023-07-20T08:58:40;20.30;;;5.75;;
80926;SDS011;70385;44.538;18.532;2023-07-20T09:01:08;20.90;;;5.97;;
80926;SDS011;70385;44.538;18.532;2023-07-20T09:03:36;17.77;;;6.47;;
80926;SDS011;70385;44.538;18.532;2023-07-20T09:06:07;19.70;;;7.25;;
80926;SDS011;70385;44.538;18.532;2023-07-20T09:08:33;33.60;;;12.25;;
80926;SDS011;70385;44.538;18.532;2023-07-20T09:10:59;39.33;;;13.80;;
80926;SDS011;70385;44.538;18.532;2023-07-20T09:13:33;25.08;;;7.85;;
80926;SDS011;70385;44.538;18.532;2023-07-20T09:16:02;26.60;;;7.60;;
80926;SDS011;70385;44.538;18.532;2023-07-20T09:18:31;35.67;;;11.32;;
80926;SDS011;70385;44.538;18.532;2023-07-20T09:21:03;26.92;;;9.65;;
80926;SDS011;70385;44.538;18.532;2023-07-20T09:23:37;22.42;;;9.15;;
80926;SDS011;70385;44.538;18.532;2023-07-20T09:26:09;27.67;;;9.13;;
80926;SDS011;70385;44.538;18.532;2023-07-20T09:28:48;25.92;;;9.35;;
80926;SDS011;70385;44.538;18.532;2023-07-20T09:31:23;23.90;;;8.88;;
80926;SDS011;70385;44.538;18.532;2023-07-20T09:33:55;22.77;;;6.57;;
80926;SDS011;70385;44.538;18.532;2023-07-20T09:36:21;16.17;;;6.32;;
80926;SDS011;70385;44.538;18.532;2023-07-20T09:38:50;18.63;;;5.72;;
80926;SDS011;70385;44.538;18.532;2023-07-20T09:41:18;16.92;;;5.65;;
80926;SDS011;70385;44.538;18.532;2023-07-20T09:43:47;16.40;;;5.70;;
80926;SDS011;70385;44.538;18.532;2023-07-20T09:46:13;15.15;;;5.68;;
80926;SDS011;70385;44.538;18.532;2023-07-20T09:48:40;17.95;;;4.68;;
80926;SDS011;70385;44.538;18.532;2023-07-20T09:51:06;13.38;;;3.42;;
80926;SDS011;70385;44.538;18.532;2023-07-20T09:53:34;10.65;;;2.97;;
80926;SDS011;70385;44.538;18.532;2023-07-20T09:56:00;7.47;;;2.80;;
80926;SDS011;70385;44.538;18.532;2023-07-20T09:58:27;10.27;;;3.60;;
80926;SDS011;70385;44.538;18.532;2023-07-20T10:00:54;10.80;;;3.15;;
80926;SDS011;70385;44.538;18.532;2023-07-20T10:03:23;11.90;;;3.38;;
80926;SDS011;70385;44.538;18.532;2023-07-20T10:05:59;12.75;;;3.45;;
80926;SDS011;70385;44.538;18.532;2023-07-20T10:08:30;8.27;;;2.70;;
80926;SDS011;70385;44.538;18.532;2023-07-20T10:10:59;8.43;;;2.70;;
80926;SDS011;70385;44.538;18.532;2023-07-20T10:13:27;5.22;;;2.30;;
80926;SDS011;70385;44.538;18.532;2023-07-20T10:21:01;10.43;;;2.97;;
80926;SDS011;70385;44.538;18.532;2023-07-20T10:23:33;11.07;;;2.60;;
80926;SDS011;70385;44.538;18.532;2023-07-20T10:25:59;7.78;;;3.00;;
80926;SDS011;70385;44.538;18.532;2023-07-20T10:28:27;6.28;;;2.40;;
80926;SDS011;70385;44.538;18.532;2023-07-20T10:30:53;7.07;;;3.20;;
80926;SDS011;70385;44.538;18.532;2023-07-20T10:33:19;8.05;;;2.75;;
80926;SDS011;70385;44.538;18.532;2023-07-20T10:35:53;7.60;;;2.55;;
80926;SDS011;70385;44.538;18.532;2023-07-20T10:38:37;12.15;;;3.30;;
80926;SDS011;70385;44.538;18.532;2023-07-20T10:41:05;8.25;;;3.00;;
80926;SDS011;70385;44.538;18.532;2023-07-20T10:44:04;5.88;;;2.30;;
80926;SDS011;70385;44.538;18.532;2023-07-20T10:46:33;7.47;;;2.67;;
80926;SDS011;70385;44.538;18.532;2023-07-20T10:49:02;6.80;;;2.30;;
80926;SDS011;70385;44.538;18.532;2023-07-20T10:51:30;7.75;;;2.78;;
80926;SDS011;70385;44.538;18.532;2023-07-20T10:54:03;8.10;;;2.75;;
80926;SDS011;70385;44.538;18.532;2023-07-20T10:56:38;9.10;;;3.00;;
80926;SDS011;70385;44.538;18.532;2023-07-20T10:59:17;7.05;;;3.10;;
80926;SDS011;70385;44.538;18.532;2023-07-20T11:01:45;5.10;;;2.63;;
80926;SDS011;70385;44.538;18.532;2023-07-20T11:04:12;8.93;;;3.25;;
80926;SDS011;70385;44.538;18.532;2023-07-20T11:06:42;10.30;;;3.00;;
80926;SDS011;70385;44.538;18.532;2023-07-20T11:09:12;4.75;;;2.53;;
80926;SDS011;70385;44.538;18.532;2023-07-20T11:11:46;8.25;;;2.55;;
80926;SDS011;70385;44.538;18.532;2023-07-20T11:14:22;5.68;;;2.75;;
80926;SDS011;70385;44.538;18.532;2023-07-20T11:16:52;5.00;;;2.65;;
80926;SDS011;70385;44.538;18.532;2023-07-20T11:19:21;6.75;;;2.83;;
80926;SDS011;70385;44.538;18.532;2023-07-20T11:21:55;8.45;;;3.05;;
80926;SDS011;70385;44.538;18.532;2023-07-20T11:24:21;5.18;;;2.70;;
80926;SDS011;70385;44.538;18.532;2023-07-20T11:26:51;11.52;;;3.10;;
80926;SDS011;70385;44.538;18.532;2023-07-20T11:29:20;7.20;;;2.30;;
80926;SDS011;70385;44.538;18.532;2023-07-20T11:31:49;4.43;;;2.80;;
80926;SDS011;70385;44.538;18.532;2023-07-20T11:34:16;5.90;;;2.78;;
80926;SDS011;70385;44.538;18.532;2023-07-20T11:36:43;5.40;;;2.63;;
80926;SDS011;70385;44.538;18.532;2023-07-20T11:39:15;11.18;;;2.67;;
80926;SDS011;70385;44.538;18.532;2023-07-20T11:41:49;6.50;;;3.00;;
80926;SDS011;70385;44.538;18.532;2023-07-20T11:44:17;6.70;;;2.38;;
80926;SDS011;70385;44.538;18.532;2023-07-20T11:46:46;7.40;;;2.90;;
80926;SDS011;70385;44.538;18.532;2023-07-20T11:49:13;5.35;;;2.60;;
80926;SDS011;70385;44.538;18.532;2023-07-20T11:51:39;4.80;;;2.70;;
80926;SDS011;70385;44.538;18.532;2023-07-20T11:54:08;7.78;;;2.53;;
80926;SDS011;70385;44.538;18.532;2023-07-20T11:56:35;5.28;;;2.55;;
80926;SDS011;70385;44.538;18.532;2023-07-20T11:59:00;6.65;;;3.05;;
80926;SDS011;70385;44.538;18.532;2023-07-20T12:01:33;6.78;;;3.00;;
80926;SDS011;70385;44.538;18.532;2023-07-20T12:04:03;7.78;;;3.13;;
80926;SDS011;70385;44.538;18.532;2023-07-20T12:06:31;5.65;;;2.40;;
80926;SDS011;70385;44.538;18.532;2023-07-20T12:08:58;5.38;;;3.53;;
80926;SDS011;70385;44.538;18.532;2023-07-20T12:11:33;5.65;;;2.90;;
80926;SDS011;70385;44.538;18.532;2023-07-20T12:14:06;7.75;;;2.90;;
80926;SDS011;70385;44.538;18.532;2023-07-20T12:16:37;4.65;;;2.60;;
80926;SDS011;70385;44.538;18.532;2023-07-20T12:19:17;6.18;;;2.80;;
80926;SDS011;70385;44.538;18.532;2023-07-20T12:21:46;5.70;;;2.92;;
80926;SDS011;70385;44.538;18.532;2023-07-20T12:24:20;3.97;;;2.83;;
80926;SDS011;70385;44.538;18.532;2023-07-20T12:26:49;5.55;;;2.80;;
80926;SDS011;70385;44.538;18.532;2023-07-20T12:29:24;5.78;;;2.85;;
80926;SDS011;70385;44.538;18.532;2023-07-20T12:31:52;6.13;;;2.65;;
80926;SDS011;70385;44.538;18.532;2023-07-20T12:34:17;4.95;;;3.08;;
80926;SDS011;70385;44.538;18.532;2023-07-20T12:36:43;5.68;;;3.58;;
80926;SDS011;70385;44.538;18.532;2023-07-20T12:39:09;9.57;;;3.03;;
80926;SDS011;70385;44.538;18.532;2023-07-20T12:41:34;8.85;;;3.25;;
80926;SDS011;70385;44.538;18.532;2023-07-20T12:44:00;7.85;;;3.20;;
80926;SDS011;70385;44.538;18.532;2023-07-20T12:46:30;8.82;;;3.05;;
80926;SDS011;70385;44.538;18.532;2023-07-20T12:49:01;6.68;;;3.45;;
80926;SDS011;70385;44.538;18.532;2023-07-20T12:51:26;6.00;;;3.50;;
80926;SDS011;70385;44.538;18.532;2023-07-20T12:53:55;4.97;;;3.03;;
80926;SDS011;70385;44.538;18.532;2023-07-20T12:56:21;5.70;;;3.40;;
80926;SDS011;70385;44.538;18.532;2023-07-20T12:58:58;7.72;;;2.90;;
80926;SDS011;70385;44.538;18.532;2023-07-20T13:01:36;5.43;;;3.47;;
80926;SDS011;70385;44.538;18.532;2023-07-20T13:04:14;4.68;;;2.78;;
80926;SDS011;70385;44.538;18.532;2023-07-20T13:06:40;3.92;;;2.88;;
80926;SDS011;70385;44.538;18.532;2023-07-20T13:09:08;5.20;;;3.08;;
80926;SDS011;70385;44.538;18.532;2023-07-20T13:11:34;5.78;;;3.10;;
80926;SDS011;70385;44.538;18.532;2023-07-20T13:14:22;8.98;;;3.08;;
80926;SDS011;70385;44.538;18.532;2023-07-20T13:16:49;4.13;;;2.90;;
80926;SDS011;70385;44.538;18.532;2023-07-20T13:19:15;4.93;;;2.97;;
80926;SDS011;70385;44.538;18.532;2023-07-20T13:21:52;7.07;;;2.97;;
80926;SDS011;70385;44.538;18.532;2023-07-20T13:24:22;4.25;;;2.95;;
80926;SDS011;70385;44.538;18.532;2023-07-20T13:26:47;5.38;;;3.40;;
80926;SDS011;70385;44.538;18.532;2023-07-20T13:29:26;6.07;;;2.88;;
80926;SDS011;70385;44.538;18.532;2023-07-20T13:31:55;4.80;;;2.67;;
80926;SDS011;70385;44.538;18.532;2023-07-20T13:34:24;8.00;;;2.78;;
80926;SDS011;70385;44.538;18.532;2023-07-20T13:37:01;5.15;;;3.40;;
80926;SDS011;70385;44.538;18.532;2023-07-20T13:39:45;5.50;;;2.90;;
80926;SDS011;70385;44.538;18.532;2023-07-20T13:42:28;5.93;;;2.78;;
80926;SDS011;70385;44.538;18.532;2023-07-20T14:13:52;6.32;;;2.97;;
80926;SDS011;70385;44.538;18.532;2023-07-20T14:16:38;4.07;;;3.05;;
80926;SDS011;70385;44.538;18.532;2023-07-20T14:19:15;5.43;;;2.92;;
80926;SDS011;70385;44.538;18.532;2023-07-20T14:24:19;4.18;;;3.05;;
80926;SDS011;70385;44.538;18.532;2023-07-20T14:27:59;5.30;;;3.00;;
80926;SDS011;70385;44.538;18.532;2023-07-20T14:30:44;4.85;;;3.22;;
80926;SDS011;70385;44.538;18.532;2023-07-20T14:44:14;4.13;;;2.80;;
80926;SDS011;70385;44.538;18.532;2023-07-20T14:46:41;4.88;;;3.30;;
80926;SDS011;70385;44.538;18.532;2023-07-20T14:56:48;7.15;;;2.95;;
80926;SDS011;70385;44.538;18.532;2023-07-20T14:59:23;7.15;;;2.75;;
80926;SDS011;70385;44.538;18.532;2023-07-20T15:02:00;7.80;;;3.10;;
80926;SDS011;70385;44.538;18.532;2023-07-20T15:04:27;11.18;;;2.88;;
80926;SDS011;70385;44.538;18.532;2023-07-20T15:07:12;5.20;;;2.90;;
80926;SDS011;70385;44.538;18.532;2023-07-20T15:09:50;5.35;;;2.45;;
80926;SDS011;70385;44.538;18.532;2023-07-20T15:12:26;4.38;;;3.05;;
80926;SDS011;70385;44.538;18.532;2023-07-20T15:15:25;4.07;;;3.10;;
80926;SDS011;70385;44.538;18.532;2023-07-20T15:17:56;4.97;;;2.78;;
80926;SDS011;70385;44.538;18.532;2023-07-20T15:20:23;4.50;;;2.60;;
80926;SDS011;70385;44.538;18.532;2023-07-20T15:23:08;4.40;;;2.88;;
80926;SDS011;70385;44.538;18.532;2023-07-20T15:25:59;6.40;;;2.58;;
80926;SDS011;70385;44.538;18.532;2023-07-20T15:28:34;5.25;;;3.00;;
80926;SDS011;70385;44.538;18.532;2023-07-20T15:31:11;5.90;;;2.72;;
80926;SDS011;70385;44.538;18.532;2023-07-20T15:33:47;4.28;;;2.80;;
80926;SDS011;70385;44.538;18.532;2023-07-20T15:36:22;5.13;;;2.72;;
80926;SDS011;70385;44.538;18.532;2023-07-20T15:38:52;5.32;;;2.88;;